.
WxDataArchive / Data Records for 2009-09-14
2009-09-13 September 2009 2009-09-15

Data Records for Monday, 14 September 2009

Time	Temp	Chill	HIndex	Humid	Dewpt	 Wind 	HiWind	WindDir	Rain 	Barom 
-----	----	-----	------	-----	-----	------	------	-------	-----	----- 
00:00	61.0	61.0	61.0	92	58.7	0	0	---	0.00	30.080 
00:05	61.0	61.0	61.0	92	58.7	0	0	---	0.00	30.080 
00:10	61.0	61.0	61.0	92	58.7	0	0	---	0.00	30.080 
00:15	60.9	60.9	60.9	92	58.6	0	0	---	0.00	30.078 
00:20	60.9	60.9	60.9	92	58.6	0	0	---	0.00	30.078 
00:25	60.7	60.7	60.7	92	58.4	0	0	---	0.00	30.078 
00:30	60.5	60.5	60.5	92	58.2	0	0	---	0.00	30.076 
00:35	60.5	60.5	60.5	92	58.2	0	0	---	0.00	30.076 
00:40	60.4	60.4	60.4	93	58.4	0	0	---	0.00	30.076 
00:45	60.4	60.4	60.4	93	58.4	0	0	---	0.00	30.083 
00:50	60.2	60.2	60.2	93	58.2	0	0	---	0.00	30.083 
00:55	60.2	60.2	60.2	93	58.2	0	0	---	0.00	30.083 
01:00	60.1	60.1	60.1	93	58.1	0	0	---	0.00	30.081 
01:05	59.9	59.9	59.9	93	57.9	0	0	---	0.00	30.081 
01:10	59.9	59.9	59.9	93	57.9	0	0	---	0.00	30.081 
01:15	59.9	59.9	59.9	93	57.9	0	0	---	0.00	30.081 
01:20	59.8	59.8	59.8	93	57.8	0	0	---	0.00	30.081 
01:25	59.8	59.8	59.8	94	58.1	0	0	---	0.00	30.081 
01:30	59.8	59.8	59.8	94	58.1	0	0	---	0.00	30.081 
01:35	59.6	59.6	59.6	94	57.9	0	0	---	0.00	30.081 
01:40	59.6	59.6	59.6	94	57.9	0	0	---	0.00	30.081 
01:45	59.5	59.5	59.5	94	57.8	0	0	---	0.00	30.078 
01:50	59.3	59.3	59.3	94	57.6	0	0	---	0.00	30.078 
01:55	59.3	59.3	59.3	94	57.6	0	0	---	0.00	30.078 
02:00	59.2	59.2	59.2	94	57.5	0	0	---	0.00	30.077 
02:05	59.2	59.2	59.2	94	57.5	0	0	---	0.00	30.077 
02:10	59.0	59.0	59.0	94	57.3	0	0	---	0.00	30.077 
02:15	59.0	59.0	59.0	94	57.3	0	0	---	0.00	30.075 
02:20	58.9	58.9	58.9	94	57.2	0	0	---	0.00	30.075 
02:25	58.9	58.9	58.9	95	57.5	0	0	---	0.00	30.075 
02:30	58.9	58.9	58.9	95	57.5	0	0	---	0.00	30.073 
02:35	58.9	58.9	58.9	95	57.5	0	0	---	0.00	30.073 
02:40	58.9	58.9	58.9	95	57.5	0	0	---	0.00	30.073 
02:45	58.7	58.7	58.7	95	57.3	0	0	---	0.00	30.070 
02:50	58.7	58.7	58.7	95	57.3	0	0	---	0.00	30.070 
02:55	58.6	58.6	58.6	95	57.2	0	0	---	0.00	30.070 
03:00	58.6	58.6	58.6	95	57.2	0	0	---	0.00	30.069 
03:05	58.4	58.4	58.4	95	57.0	0	0	---	0.00	30.069 
03:10	58.4	58.4	58.4	95	57.0	0	0	---	0.00	30.069 
03:15	58.3	58.3	58.3	95	56.9	0	0	---	0.00	30.071 
03:20	58.3	58.3	58.3	95	56.9	0	0	---	0.00	30.071 
03:25	58.3	58.3	58.3	95	56.9	0	0	---	0.00	30.071 
03:30	58.1	58.1	58.1	95	56.7	0	0	---	0.00	30.071 
03:35	58.1	58.1	58.1	95	56.7	0	0	---	0.00	30.071 
03:40	58.0	58.0	58.0	95	56.6	0	0	---	0.00	30.071 
03:45	58.0	58.0	58.0	95	56.6	0	0	---	0.00	30.072 
03:50	57.8	57.8	57.8	95	56.4	0	0	---	0.00	30.072 
03:55	57.8	57.8	57.8	95	56.4	0	0	---	0.00	30.072 
04:00	57.8	57.8	57.8	95	56.4	0	0	---	0.00	30.072 
04:05	57.6	57.6	57.6	95	56.2	0	0	---	0.00	30.072 
04:10	57.5	57.5	57.5	95	56.1	0	0	---	0.00	30.072 
04:15	57.5	57.5	57.5	95	56.1	0	0	---	0.00	30.071 
04:20	57.5	57.5	57.5	95	56.1	0	0	---	0.00	30.071 
04:25	57.5	57.5	57.5	95	56.1	0	0	---	0.00	30.071 
04:30	57.3	57.3	57.3	95	55.9	0	0	---	0.00	30.072 
04:35	57.3	57.3	57.3	95	55.9	0	0	---	0.00	30.072 
04:40	57.3	57.3	57.3	95	55.9	0	0	---	0.00	30.072 
04:45	57.5	57.5	57.5	96	56.4	0	0	---	0.00	30.074 
04:50	57.6	57.6	57.6	96	56.5	0	0	---	0.00	30.074 
04:55	57.8	57.8	57.8	96	56.7	0	0	---	0.00	30.074 
05:00	57.8	57.8	57.8	96	56.7	0	0	---	0.00	30.072 
05:05	57.8	57.8	57.8	96	56.7	0	0	---	0.00	30.072 
05:10	57.6	57.6	57.6	96	56.5	0	0	---	0.00	30.072 
05:15	57.5	57.5	57.5	96	56.4	0	0	---	0.00	30.077 
05:20	57.3	57.3	57.3	96	56.2	0	0	---	0.00	30.077 
05:25	57.3	57.3	57.3	96	56.2	0	0	---	0.00	30.077 
05:30	57.2	57.2	57.2	96	56.1	0	0	---	0.00	30.077 
05:35	57.0	57.0	57.0	96	55.9	0	0	---	0.00	30.077 
05:40	56.9	56.9	56.9	96	55.8	0	0	---	0.00	30.077 
05:45	56.9	56.9	56.9	96	55.8	0	0	---	0.00	30.075 
05:50	56.7	56.7	56.7	96	55.6	0	0	---	0.00	30.075 
05:55	56.6	56.6	56.6	96	55.5	0	0	---	0.00	30.075 
06:00	56.6	56.6	56.6	96	55.5	0	0	---	0.00	30.075 
06:05	56.5	56.5	56.5	96	55.4	0	0	---	0.00	30.075 
06:10	56.5	56.5	56.5	96	55.4	0	0	---	0.00	30.075 
06:15	56.5	56.5	56.5	96	55.4	0	0	---	0.00	30.085 
06:20	56.5	56.5	56.5	96	55.4	0	0	---	0.00	30.085 
06:25	56.3	56.3	56.3	96	55.2	0	0	---	0.00	30.085 
06:30	56.3	56.3	56.3	96	55.2	0	0	---	0.00	30.090 
06:35	56.3	56.3	56.3	96	55.2	0	0	---	0.00	30.090 
06:40	56.2	56.2	56.2	96	55.1	0	0	---	0.00	30.090 
06:45	56.2	56.2	56.2	96	55.1	0	0	---	0.00	30.092 
06:50	56.2	56.2	56.2	96	55.1	0	0	---	0.00	30.092 
06:55	56.0	56.0	56.0	96	54.9	0	0	---	0.00	30.092 
07:00	56.0	56.0	56.0	96	54.9	0	0	---	0.00	30.091 
07:05	56.0	56.0	56.0	96	54.9	0	0	---	0.00	30.091 
07:10	56.0	56.0	56.0	96	54.9	0	0	---	0.00	30.091 
07:15	56.0	56.0	56.0	96	54.9	0	0	---	0.00	30.097 
07:20	55.9	55.9	55.9	96	54.8	0	0	---	0.00	30.097 
07:25	55.9	55.9	55.9	96	54.8	0	0	---	0.00	30.097 
07:30	55.9	55.9	55.9	96	54.8	0	0	---	0.00	30.101 
07:35	55.9	55.9	55.9	96	54.8	0	0	---	0.00	30.101 
07:40	55.9	55.9	55.9	96	54.8	0	0	---	0.00	30.101 
07:45	55.9	55.9	55.9	96	54.8	0	0	---	0.00	30.107 
07:50	55.9	55.9	55.9	96	54.8	0	0	---	0.00	30.107 
07:55	56.0	56.0	56.0	96	54.9	0	0	---	0.00	30.107 
08:00	56.2	56.2	56.2	96	55.1	0	0	---	0.00	30.110 
08:05	56.3	56.3	56.3	96	55.2	0	0	---	0.00	30.110 
08:10	56.5	56.5	56.5	96	55.4	0	0	---	0.00	30.110 
08:15	56.9	56.9	56.9	96	55.8	0	0	---	0.00	30.115 
08:20	57.2	57.2	57.2	96	56.1	0	0	---	0.00	30.115 
08:25	57.6	57.6	57.6	97	56.8	0	0	---	0.00	30.115 
08:30	58.4	58.4	58.4	97	57.5	0	0	---	0.00	30.113 
08:35	58.9	58.9	58.9	97	58.0	0	0	---	0.00	30.113 
08:40	59.3	59.3	59.3	97	58.4	0	0	---	0.00	30.113 
08:45	59.8	59.8	59.8	97	58.9	0	0	---	0.00	30.110 
08:50	60.1	60.1	60.1	97	59.2	0	0	---	0.00	30.110 
08:55	60.4	60.4	60.4	97	59.5	0	0	---	0.00	30.110 
09:00	60.5	60.5	60.5	96	59.4	0	0	---	0.00	30.110 
09:05	60.9	60.9	60.9	96	59.7	0	0	---	0.00	30.110 
09:10	61.3	61.3	61.3	96	60.1	0	0	---	0.00	30.110 
09:15	61.6	61.6	61.6	96	60.4	0	0	---	0.00	30.110 
09:20	62.1	62.1	62.1	95	60.6	0	0	---	0.00	30.110 
09:25	62.7	62.7	62.7	94	60.9	0	0	---	0.00	30.110 
09:30	63.2	63.2	63.2	92	60.8	0	0	---	0.00	30.117 
09:35	63.9	63.9	63.9	88	60.3	0	0	---	0.00	30.117 
09:40	64.5	64.5	64.5	86	60.2	0	0	---	0.00	30.117 
09:45	65.2	65.2	65.2	82	59.6	0	0	---	0.00	30.119 
09:50	66.1	66.1	66.1	80	59.7	0	0	---	0.00	30.119 
09:55	66.8	66.8	66.8	77	59.3	0	0	---	0.00	30.119 
10:00	67.6	67.6	67.6	74	59.0	0	0	---	0.00	30.121 
10:05	68.3	68.3	68.3	74	59.7	0	0	---	0.00	30.121 
10:10	68.9	68.9	68.9	72	59.5	0	0	---	0.00	30.121 
10:15	69.8	69.8	69.8	73	60.7	0	0	---	0.00	30.118 
10:20	70.3	70.3	70.3	70	60.0	0	2	112	0.00	30.118 
10:25	70.8	70.8	70.8	69	60.1	0	1	112	0.00	30.118 
10:30	71.5	71.5	71.5	68	60.4	0	1	112	0.00	30.118 
10:35	72.0	72.0	72.0	66	60.0	0	2	112	0.00	30.118 
10:40	72.5	72.5	72.5	68	61.3	0	1	112	0.00	30.118 
10:45	72.8	72.8	72.8	65	60.3	0	1	112	0.00	30.117 
10:50	73.2	73.2	73.2	64	60.3	1	2	112	0.00	30.117 
10:55	73.5	73.5	73.5	62	59.7	1	3	270	0.00	30.117 
11:00	73.5	73.5	73.5	60	58.7	0	1	292	0.00	30.116 
11:05	73.9	73.9	73.9	64	60.9	1	2	315	0.00	30.116 
11:10	74.2	74.2	74.2	60	59.4	1	3	315	0.00	30.116 
11:15	74.6	74.6	74.6	58	58.8	0	2	292	0.00	30.117 
11:20	74.7	74.7	74.7	58	58.9	0	2	292	0.00	30.117 
11:25	75.1	75.1	77.5	58	59.3	1	3	292	0.00	30.117 
11:30	75.3	75.3	77.6	58	59.5	0	3	292	0.00	30.115 
11:35	75.8	75.8	77.9	57	59.5	0	2	270	0.00	30.115 
11:40	76.1	76.1	78.1	56	59.2	0	2	270	0.00	30.115 
11:45	76.3	76.3	78.3	56	59.4	1	2	270	0.00	30.115 
11:50	76.5	76.5	78.4	54	58.6	1	2	248	0.00	30.115 
11:55	76.7	76.7	78.5	57	60.3	0	3	158	0.00	30.115 
12:00	77.0	77.0	78.7	54	59.1	0	3	270	0.00	30.109 
12:05	77.2	77.2	78.8	53	58.7	1	2	270	0.00	30.109 
12:10	77.6	77.6	79.2	56	60.6	0	2	270	0.00	30.109 
12:15	77.9	77.9	79.2	50	57.7	0	2	270	0.00	30.109 
12:20	78.1	78.1	79.3	50	57.9	0	1	270	0.00	30.109 
12:25	78.3	78.3	79.5	51	58.7	0	1	292	0.00	30.109 
12:30	78.1	78.1	79.3	50	57.9	0	4	45	0.00	30.104 
12:35	78.3	78.3	79.3	47	56.4	0	2	45	0.00	30.104 
12:40	78.5	78.5	79.6	51	58.8	0	2	22	0.00	30.104 
12:45	78.6	78.6	79.7	51	58.9	1	4	248	0.00	30.099 
12:50	79.0	79.0	80.2	53	60.4	0	2	112	0.00	30.099 
12:55	79.0	79.0	80.0	50	58.7	0	1	90	0.00	30.099 
13:00	79.0	79.0	79.8	48	57.6	1	3	315	0.00	30.098 
13:05	79.2	79.2	80.2	51	59.5	0	2	315	0.00	30.098 
13:10	79.2	79.2	80.1	50	58.9	1	4	315	0.00	30.098 
13:15	78.8	78.8	79.7	48	57.4	1	2	315	0.00	30.094 
13:20	79.0	79.0	80.0	51	59.3	0	1	315	0.00	30.094 
13:25	79.4	79.4	80.3	50	59.1	0	2	315	0.00	30.094 
13:30	79.4	79.4	80.2	49	58.5	1	3	315	0.00	30.088 
13:35	79.8	79.8	80.6	50	59.5	0	2	315	0.00	30.088 
13:40	80.1	80.1	80.7	48	58.6	0	3	315	0.00	30.088 
13:45	79.8	79.8	80.7	51	60.0	0	1	315	0.00	30.083 
13:50	79.8	79.8	80.6	50	59.5	0	3	0	0.00	30.083 
13:55	79.8	79.8	80.5	49	58.9	0	2	0	0.00	30.083 
14:00	80.1	80.1	80.6	47	58.0	1	4	0	0.00	30.076 
14:05	79.9	79.9	80.7	50	59.6	0	1	90	0.00	30.076 
14:10	80.1	80.1	80.7	48	58.6	1	3	68	0.00	30.076 
14:15	80.3	80.3	80.8	47	58.2	0	2	315	0.00	30.069 
14:20	80.7	80.7	81.7	52	61.4	0	2	315	0.00	30.069 
14:25	80.9	80.9	81.3	47	58.8	1	2	315	0.00	30.069 
14:30	81.1	81.1	81.7	49	60.1	0	2	315	0.00	30.064 
14:35	81.1	81.1	81.6	48	59.5	0	2	315	0.00	30.064 
14:40	81.1	81.1	81.7	49	60.1	0	2	315	0.00	30.064 
14:45	81.1	81.1	81.7	49	60.1	0	1	315	0.00	30.058 
14:50	81.1	81.1	81.8	50	60.7	0	2	315	0.00	30.058 
14:55	81.1	81.1	81.8	50	60.7	0	2	315	0.00	30.058 
15:00	81.2	81.2	81.7	48	59.6	0	1	315	0.00	30.052 
15:05	81.2	81.2	81.6	47	59.0	0	1	315	0.00	30.052 
15:10	81.4	81.4	81.8	47	59.2	1	5	112	0.00	30.052 
15:15	81.4	81.4	82.3	51	61.5	0	1	112	0.00	30.050 
15:20	81.6	81.6	82.1	48	60.0	0	2	112	0.00	30.050 
15:25	81.8	81.8	82.6	50	61.3	0	1	112	0.00	30.050 
15:30	81.8	81.8	82.4	49	60.7	0	1	112	0.00	30.043 
15:35	82.2	82.2	82.8	49	61.1	0	1	112	0.00	30.043 
15:40	82.2	82.2	82.4	46	59.3	0	1	112	0.00	30.043 
15:45	82.2	82.2	82.4	46	59.3	1	3	22	0.00	30.036 
15:50	82.2	82.2	82.8	49	61.1	0	1	270	0.00	30.036 
15:55	81.8	81.8	82.3	48	60.2	0	2	270	0.00	30.036 
16:00	81.6	81.6	82.3	50	61.1	0	1	292	0.00	30.035 
16:05	81.6	81.6	82.5	51	61.7	0	1	292	0.00	30.035 
16:10	81.4	81.4	82.0	49	60.4	0	1	292	0.00	30.035 
16:15	81.4	81.4	81.8	47	59.2	0	2	292	0.00	30.035 
16:20	81.2	81.2	81.6	47	59.0	0	1	292	0.00	30.035 
16:25	81.2	81.2	81.9	50	60.8	0	1	292	0.00	30.035 
16:30	81.2	81.2	82.1	51	61.3	0	3	292	0.00	30.033 
16:35	81.1	81.1	81.5	47	58.9	0	1	292	0.00	30.033 
16:40	80.5	80.5	81.0	48	59.0	1	2	292	0.00	30.033 
16:45	80.1	80.1	80.8	49	59.2	0	1	292	0.00	30.030 
16:50	80.1	80.1	80.9	50	59.8	0	2	292	0.00	30.030 
16:55	80.3	80.3	81.1	50	59.9	0	1	292	0.00	30.030 
17:00	80.3	80.3	81.2	51	60.5	0	1	292	0.00	30.021 
17:05	80.5	80.5	81.0	48	59.0	1	2	292	0.00	30.021 
17:10	80.5	80.5	81.0	48	59.0	0	1	292	0.00	30.021 
17:15	80.5	80.5	81.2	49	59.6	0	1	292	0.00	30.019 
17:20	80.3	80.3	81.1	50	59.9	0	1	292	0.00	30.019 
17:25	80.1	80.1	80.9	50	59.8	0	1	292	0.00	30.019 
17:30	80.3	80.3	81.0	49	59.4	0	0	---	0.00	30.018 
17:35	80.3	80.3	81.1	50	59.9	0	1	292	0.00	30.018 
17:40	80.3	80.3	81.1	50	59.9	0	2	292	0.00	30.018 
17:45	80.3	80.3	80.9	48	58.8	0	1	292	0.00	30.019 
17:50	80.1	80.1	80.6	47	58.0	0	1	292	0.00	30.019 
17:55	80.1	80.1	80.6	47	58.0	0	2	292	0.00	30.019 
18:00	80.1	80.1	80.8	49	59.2	0	1	292	0.00	30.015 
18:05	79.9	79.9	80.6	49	59.0	0	1	292	0.00	30.015 
18:10	79.9	79.9	80.7	50	59.6	0	1	292	0.00	30.015 
18:15	79.6	79.6	80.5	51	59.9	0	1	292	0.00	30.013 
18:20	79.6	79.6	80.5	50	59.3	0	1	292	0.00	30.013 
18:25	79.6	79.6	80.6	52	60.4	0	1	292	0.00	30.013 
18:30	79.4	79.4	80.3	50	59.1	0	1	292	0.00	30.010 
18:35	79.2	79.2	80.2	51	59.5	0	1	292	0.00	30.010 
18:40	79.0	79.0	80.1	52	59.8	0	0	---	0.00	30.010 
18:45	78.8	78.8	80.0	53	60.2	0	0	---	0.00	30.008 
18:50	78.6	78.6	79.9	54	60.5	0	0	---	0.00	30.008 
18:55	78.5	78.5	79.9	55	61.0	0	0	---	0.00	30.008 
19:00	78.3	78.3	79.7	55	60.8	0	0	---	0.00	30.009 
19:05	77.9	77.9	79.3	54	59.9	0	0	---	0.00	30.009 
19:10	77.9	77.9	79.3	54	59.9	0	0	---	0.00	30.009 
19:15	77.7	77.7	79.3	56	60.7	0	0	---	0.00	30.012 
19:20	77.4	77.4	79.0	56	60.5	0	1	292	0.00	30.012 
19:25	77.0	77.0	78.7	57	60.6	0	0	---	0.00	30.012 
19:30	76.8	76.8	78.6	57	60.4	0	0	---	0.00	30.013 
19:35	76.5	76.5	78.4	58	60.6	0	0	---	0.00	30.013 
19:40	76.0	76.0	78.0	60	61.1	0	0	---	0.00	30.013 
19:45	75.6	75.6	77.7	61	61.2	0	0	---	0.00	30.014 
19:50	75.3	75.3	77.5	61	60.9	0	0	---	0.00	30.014 
19:55	74.7	74.7	74.7	62	60.8	0	0	---	0.00	30.014 
20:00	74.2	74.2	74.2	63	60.8	0	0	---	0.00	30.017 
20:05	73.7	73.7	73.7	64	60.7	0	0	---	0.00	30.017 
20:10	73.2	73.2	73.2	65	60.7	0	0	---	0.00	30.017 
20:15	72.5	72.5	72.5	66	60.5	0	0	---	0.00	30.018 
20:20	72.1	72.1	72.1	68	60.9	0	0	---	0.00	30.018 
20:25	71.6	71.6	71.6	70	61.3	0	0	---	0.00	30.018 
20:30	71.1	71.1	71.1	71	61.2	0	0	---	0.00	30.022 
20:35	70.8	70.8	70.8	72	61.3	0	0	---	0.00	30.022 
20:40	70.3	70.3	70.3	73	61.2	0	0	---	0.00	30.022 
20:45	69.9	69.9	69.9	75	61.6	0	0	---	0.00	30.024 
20:50	69.6	69.6	69.6	76	61.7	0	0	---	0.00	30.024 
20:55	69.3	69.3	69.3	77	61.8	0	0	---	0.00	30.024 
21:00	69.1	69.1	69.1	77	61.6	0	0	---	0.00	30.028 
21:05	68.8	68.8	68.8	78	61.7	0	0	---	0.00	30.028 
21:10	68.6	68.6	68.6	79	61.8	0	0	---	0.00	30.028 
21:15	68.3	68.3	68.3	79	61.5	0	0	---	0.00	30.029 
21:20	68.1	68.1	68.1	80	61.7	0	0	---	0.00	30.029 
21:25	67.9	67.9	67.9	80	61.5	0	0	---	0.00	30.029 
21:30	67.6	67.6	67.6	81	61.6	0	0	---	0.00	30.034 
21:35	67.4	67.4	67.4	81	61.4	0	0	---	0.00	30.034 
21:40	67.3	67.3	67.3	82	61.6	0	0	---	0.00	30.034 
21:45	67.1	67.1	67.1	82	61.4	0	0	---	0.00	30.035 
21:50	66.9	66.9	66.9	83	61.6	0	0	---	0.00	30.035 
21:55	66.8	66.8	66.8	83	61.5	0	0	---	0.00	30.035 
22:00	66.6	66.6	66.6	83	61.3	0	0	---	0.00	30.035 
22:05	66.4	66.4	66.4	84	61.4	0	0	---	0.00	30.035 
22:10	66.1	66.1	66.1	84	61.1	0	0	---	0.00	30.035 
22:15	66.0	66.0	66.0	85	61.4	0	0	---	0.00	30.032 
22:20	65.8	65.8	65.8	85	61.2	0	0	---	0.00	30.032 
22:25	65.6	65.6	65.6	86	61.3	0	0	---	0.00	30.032 
22:30	65.5	65.5	65.5	86	61.2	0	0	---	0.00	30.033 
22:35	65.2	65.2	65.2	86	60.9	0	0	---	0.00	30.033 
22:40	65.0	65.0	65.0	87	61.0	0	0	---	0.00	30.033 
22:45	65.0	65.0	65.0	87	61.0	0	0	---	0.00	30.035 
22:50	64.8	64.8	64.8	87	60.8	0	0	---	0.00	30.035 
22:55	64.7	64.7	64.7	87	60.7	0	0	---	0.00	30.035 
23:00	64.7	64.7	64.7	88	61.1	0	0	---	0.00	30.038 
23:05	64.5	64.5	64.5	88	60.9	0	0	---	0.00	30.038 
23:10	64.3	64.3	64.3	88	60.7	0	0	---	0.00	30.038 
23:15	64.2	64.2	64.2	88	60.6	0	0	---	0.00	30.036 
23:20	64.2	64.2	64.2	88	60.6	0	0	---	0.00	30.036 
23:25	64.0	64.0	64.0	88	60.4	0	0	---	0.00	30.036 
23:30	63.9	63.9	63.9	88	60.3	0	0	---	0.00	30.041 
23:35	63.7	63.7	63.7	88	60.1	0	0	---	0.00	30.041 
23:40	63.5	63.5	63.5	89	60.2	0	0	---	0.00	30.041 
23:45	63.4	63.4	63.4	89	60.1	0	0	---	0.00	30.043 
23:50	63.2	63.2	63.2	89	59.9	0	0	---	0.00	30.043 
23:55	63.2	63.2	63.2	90	60.2	0	0	---	0.00	30.043 

CoCoRaHS
IN-AL-39
A2 Web Hosting
Creative Commons License
GoDaddy
search engine by freefind advanced

loaded 2018-11-21 01:37:43 • last modified 2010-11-18 10:43:29
Privacy PolicyDisclaimer
• wx.awcolley.com is powered by PmWiki v.2002016 •
• all content (unless otherwise noted) © 2018 A W Colley